Time;durP1;ratioP1;P1;durP2;ratioP2;P2;SDS_P1;SDS_P2;PMS_P1;PMS_P2;Temp;Humidity;BMP_temperature;BMP_pressure;BME280_temperature;BME280_humidity;BME280_pressure;Samples;Min_cycle;Max_cycle;Signal;HPM_P1;HPM_P2
2022/04/12 04:22:35;;;;;;;11.77;6.88;;;;;;;4.30;97.06;99928.06;5129674;27;20112;-74
2022/04/12 04:25:01;;;;;;;13.23;6.40;;;;;;;4.24;97.21;99918.94;5129881;28;20040;-74
2022/04/12 04:27:29;;;;;;;12.45;7.30;;;;;;;4.29;97.93;99923.78;5127314;28;20043;-74
2022/04/12 04:29:57;;;;;;;15.23;6.82;;;;;;;4.31;97.42;99929.75;5131987;22;20115;-74
2022/04/12 04:32:23;;;;;;;15.73;9.43;;;;;;;4.33;98.01;99933.09;5108691;28;20488;-75
2022/04/12 04:34:49;;;;;;;13.15;7.55;;;;;;;4.30;97.20;99928.06;5107716;28;20032;-74
2022/04/12 04:37:14;;;;;;;12.25;7.90;;;;;;;4.29;97.09;99927.25;5124569;28;20035;-73
2022/04/12 04:39:40;;;;;;;14.73;8.10;;;;;;;4.34;96.19;99934.75;5108837;28;20028;-75
2022/04/12 04:42:06;;;;;;;16.75;8.82;;;;;;;4.36;97.09;99938.06;5107223;28;20038;-74
2022/04/12 04:44:32;;;;;;;15.00;7.47;;;;;;;4.37;96.38;99934.47;5108816;28;20051;-74
2022/04/12 04:46:58;;;;;;;15.52;7.45;;;;;;;4.37;96.81;99937.13;5108976;28;20067;-74
2022/04/12 04:49:25;;;;;;;12.93;7.43;;;;;;;4.38;96.25;99941.41;5107366;28;20089;-74
2022/04/12 04:51:50;;;;;;;10.90;6.47;;;;;;;4.29;97.01;99927.25;5108571;28;20039;-74
2022/04/12 04:54:16;;;;;;;15.15;7.68;;;;;;;4.34;96.56;99932.94;5109362;28;20062;-74
2022/04/12 04:56:42;;;;;;;17.98;7.13;;;;;;;4.38;96.19;99940.59;5108689;28;20035;-74
2022/04/12 04:59:10;;;;;;;15.13;6.90;;;;;;;4.38;96.42;99936.13;5108612;28;20032;-74
2022/04/12 05:01:35;;;;;;;14.43;6.65;;;;;;;4.44;96.53;99940.03;5107091;28;20534;-74
2022/04/12 05:04:01;;;;;;;14.80;7.57;;;;;;;4.44;96.63;99940.03;5108668;28;20043;-74
2022/04/12 05:06:27;;;;;;;10.52;5.82;;;;;;;4.49;95.37;99935.97;5108438;28;20499;-73
2022/04/12 05:08:53;;;;;;;11.80;6.00;;;;;;;4.43;96.00;99931.25;5124102;28;20040;-73
2022/04/12 05:11:18;;;;;;;10.38;6.05;;;;;;;4.55;95.91;99942.47;5108313;28;20040;-74
2022/04/12 05:13:44;;;;;;;8.57;5.93;;;;;;;4.55;96.55;99935.41;5108067;28;20027;-73
2022/04/12 05:16:10;;;;;;;9.52;5.80;;;;;;;4.51;96.54;99934.03;5108365;28;20039;-74
2022/04/12 05:18:35;;;;;;;16.25;6.50;;;;;;;4.61;96.77;99942.75;5108114;28;20059;-73
2022/04/12 05:21:01;;;;;;;10.52;5.82;;;;;;;4.62;96.89;99938.28;5108276;28;20054;-74
2022/04/12 05:23:27;;;;;;;9.57;5.50;;;;;;;4.68;97.59;99955.38;5107953;28;20714;-74
2022/04/12 05:25:53;;;;;;;11.95;5.75;;;;;;;4.73;97.40;99956.59;5106884;28;20032;-73
2022/04/12 05:28:20;;;;;;;8.63;5.60;;;;;;;4.76;97.99;99963.41;5106833;28;20032;-74
2022/04/12 05:30:46;;;;;;;12.50;6.45;;;;;;;4.82;98.08;99958.38;5107592;28;20036;-74
2022/04/12 05:33:12;;;;;;;10.65;6.13;;;;;;;4.85;98.42;99957.28;5098131;28;20032;-74
2022/04/12 05:35:38;;;;;;;10.45;6.38;;;;;;;4.96;97.94;99959.75;5094240;28;20453;-73
2022/04/12 05:38:06;;;;;;;9.60;5.60;;;;;;;5.04;96.12;99959.84;5093242;28;20048;-73
2022/04/12 05:40:33;;;;;;;12.00;5.82;;;;;;;4.97;96.75;99956.13;5076625;28;20395;-72
2022/04/12 05:42:59;;;;;;;11.50;6.40;;;;;;;5.07;95.34;99959.56;5092572;28;20067;-73
2022/04/12 05:45:25;;;;;;;16.80;5.97;;;;;;;5.13;93.85;99969.53;5092951;28;20404;-73
2022/04/12 05:47:52;;;;;;;8.18;5.28;;;;;;;5.22;95.47;99972.31;5092782;28;20036;-73
2022/04/12 05:50:20;;;;;;;14.40;6.03;;;;;;;5.26;96.14;99974.50;5092586;28;20043;-72
2022/04/12 05:52:45;;;;;;;9.35;5.53;;;;;;;5.35;96.05;99972.81;5093717;28;20497;-73
2022/04/12 05:55:15;;;;;;;9.15;5.70;;;;;;;5.44;94.58;99964.81;5092577;28;20202;-75
2022/04/12 05:57:52;;;;;;;14.55;7.15;;;;;;;5.56;91.06;99954.88;5092496;28;20135;-75
2022/04/12 06:00:20;;;;;;;9.02;5.57;;;;;;;5.74;92.48;99957.56;5092527;28;20043;-74
2022/04/12 06:02:50;;;;;;;13.50;5.78;;;;;;;5.85;89.85;99961.78;5093562;28;20103;-74
2022/04/12 06:05:16;;;;;;;13.50;5.78;;;;;;;6.01;89.41;99955.88;5093971;28;20560;-74
2022/04/12 06:07:43;;;;;;;16.83;5.32;;;;;;;6.21;87.71;99960.03;5094254;28;20048;-71
2022/04/12 06:10:10;;;;;;;12.60;6.00;;;;;;;6.38;89.88;99959.16;5093776;28;20028;-71
2022/04/12 06:12:36;;;;;;;9.48;5.10;;;;;;;6.52;87.68;99958.63;5093325;28;20074;-72
2022/04/12 06:15:02;;;;;;;12.50;5.47;;;;;;;6.72;85.33;99947.84;5093499;28;20065;-71
2022/04/12 06:17:30;;;;;;;10.80;5.50;;;;;;;6.94;83.71;99947.31;5093558;28;20028;-69
2022/04/12 06:20:10;;;;;;;10.98;5.60;;;;;;;7.18;81.59;99943.97;5093252;28;20512;-70
2022/04/12 06:22:36;;;;;;;8.98;5.28;;;;;;;7.46;80.04;99952.53;5093244;28;20035;-70
2022/04/12 06:25:03;;;;;;;13.00;5.20;;;;;;;7.62;79.81;99946.44;5093655;28;20040;-70
2022/04/12 06:27:51;;;;;;;11.13;4.55;;;;;;;7.81;81.63;99951.44;5093271;28;20043;-70
2022/04/12 06:30:26;;;;;;;11.07;5.50;;;;;;;7.98;78.95;99949.66;5091837;28;20075;-67
2022/04/12 06:32:52;;;;;;;9.85;4.78;;;;;;;8.23;76.66;99950.53;5091659;28;20036;-67
2022/04/12 06:35:19;;;;;;;8.93;5.30;;;;;;;8.41;74.19;99948.59;5093060;28;20034;-68
2022/04/12 06:37:47;;;;;;;7.63;5.57;;;;;;;8.46;73.94;99950.72;5091606;28;20093;-71
2022/04/12 06:40:15;;;;;;;10.80;6.22;;;;;;;8.58;74.74;99953.88;5092908;28;20465;-72
2022/04/12 06:42:41;;;;;;;9.38;5.05;;;;;;;8.69;74.44;99954.34;5092807;28;20519;-71
2022/04/12 06:45:08;;;;;;;15.68;6.97;;;;;;;8.84;72.62;99956.31;5090033;28;20118;-71
2022/04/12 06:47:34;;;;;;;15.40;7.90;;;;;;;8.97;72.80;99948.66;5088434;28;20036;-71
2022/04/12 06:50:01;;;;;;;12.02;7.30;;;;;;;9.12;73.43;99951.44;5092660;28;20484;-71
2022/04/12 06:52:26;;;;;;;17.17;7.13;;;;;;;9.21;72.27;99967.19;5091885;28;20038;-71
2022/04/12 06:54:52;;;;;;;15.15;7.38;;;;;;;9.27;72.70;99967.50;5092502;28;20028;-71
2022/04/12 06:57:18;;;;;;;13.48;7.10;;;;;;;9.46;71.53;99967.94;5091390;28;20382;-71
2022/04/12 06:59:43;;;;;;;16.70;7.45;;;;;;;9.70;71.38;99966.16;5092535;28;20039;-71
2022/04/12 07:02:10;;;;;;;15.48;7.38;;;;;;;9.89;71.23;99952.41;5091799;28;20032;-71
2022/04/12 07:04:36;;;;;;;17.88;6.82;;;;;;;9.90;69.20;99962.03;5092570;28;20434;-71
2022/04/12 07:07:02;;;;;;;11.93;7.85;;;;;;;9.97;68.50;99962.16;5092894;28;20028;-71
2022/04/12 07:09:29;;;;;;;15.65;7.65;;;;;;;10.11;68.81;99963.25;5092666;28;20063;-71
2022/04/12 07:11:59;;;;;;;17.23;7.22;;;;;;;10.18;67.68;99965.03;5092027;28;20481;-71
2022/04/12 07:14:25;;;;;;;15.15;8.13;;;;;;;10.27;67.36;99969.31;5092375;28;20035;-71
2022/04/12 07:16:51;;;;;;;21.40;9.00;;;;;;;10.34;66.27;99969.44;5093856;28;20043;-71
2022/04/12 07:19:17;;;;;;;16.13;7.53;;;;;;;10.51;65.10;99970.97;5094093;28;20401;-70
2022/04/12 07:21:43;;;;;;;13.25;7.15;;;;;;;10.63;64.23;99973.16;5092515;28;20028;-71
2022/04/12 07:24:09;;;;;;;15.85;8.00;;;;;;;10.76;65.81;99968.91;5073944;28;20119;-71
2022/04/12 07:26:36;;;;;;;11.55;7.15;;;;;;;10.89;66.77;99968.28;5074073;28;20040;-71
2022/04/12 07:29:03;;;;;;;14.68;6.20;;;;;;;11.10;65.21;99959.56;5092365;28;20386;-71
2022/04/12 07:31:29;;;;;;;14.52;7.13;;;;;;;11.39;66.31;99964.88;5091633;28;20035;-71
2022/04/12 07:33:55;;;;;;;13.32;6.97;;;;;;;11.64;64.31;99965.41;5091664;28;20437;-71
2022/04/12 07:36:27;;;;;;;12.63;7.13;;;;;;;11.84;63.58;99971.00;5092339;28;20035;-74
2022/04/12 07:38:52;;;;;;;12.52;6.50;;;;;;;11.95;61.86;99975.03;5091992;28;20465;-73
2022/04/12 07:41:18;;;;;;;13.15;6.78;;;;;;;12.15;59.63;99964.56;5091914;28;20059;-74
2022/04/12 07:43:45;;;;;;;15.95;7.50;;;;;;;12.26;60.69;99973.91;5091826;28;20028;-74
2022/04/12 07:46:12;;;;;;;13.65;6.85;;;;;;;12.18;58.96;99969.50;5092019;28;20454;-74
2022/04/12 07:48:40;;;;;;;17.48;7.70;;;;;;;12.34;58.55;99960.44;5073561;28;20051;-72
2022/04/12 07:51:05;;;;;;;11.32;5.90;;;;;;;12.60;59.74;99958.00;5091834;28;20029;-72
2022/04/12 07:53:31;;;;;;;8.30;6.40;;;;;;;12.75;59.16;99956.03;5089775;28;20092;-72
2022/04/12 07:55:56;;;;;;;12.15;6.05;;;;;;;12.69;59.50;99953.31;5091423;28;20071;-72
2022/04/12 07:58:22;;;;;;;10.88;5.82;;;;;;;12.96;57.67;99951.66;5090392;28;20043;-72
2022/04/12 08:00:48;;;;;;;12.90;6.20;;;;;;;13.09;56.05;99951.75;5090157;28;20036;-73
2022/04/12 08:03:13;;;;;;;9.20;5.68;;;;;;;13.04;57.44;99944.34;5087000;28;20365;-73
2022/04/12 08:05:39;;;;;;;14.73;6.13;;;;;;;12.86;57.53;99943.19;5090425;28;20032;-73
2022/04/12 08:08:05;;;;;;;18.63;6.40;;;;;;;13.18;57.82;99945.22;5092105;28;20027;-73
2022/04/12 08:10:31;;;;;;;12.10;6.78;;;;;;;13.40;57.43;99947.84;5090680;28;20527;-72
2022/04/12 08:12:57;;;;;;;9.05;5.40;;;;;;;13.52;54.97;99948.91;5089451;28;20036;-73
2022/04/12 08:15:24;;;;;;;13.68;6.78;;;;;;;13.64;57.30;99954.53;5090836;28;20040;-72
2022/04/12 08:17:50;;;;;;;10.85;6.10;;;;;;;13.77;57.54;99943.88;5092518;28;20032;-73
2022/04/12 08:20:16;;;;;;;11.95;6.00;;;;;;;14.01;55.22;99934.44;5091621;28;20058;-73
2022/04/12 08:22:43;;;;;;;10.77;5.88;;;;;;;14.06;53.33;99916.75;5091230;28;20042;-73
2022/04/12 08:25:10;;;;;;;13.25;6.55;;;;;;;14.34;52.56;99929.97;5091803;28;20028;-72
2022/04/12 08:27:36;;;;;;;10.67;6.07;;;;;;;14.46;54.57;99926.66;5091450;28;20028;-73
2022/04/12 08:30:09;;;;;;;11.35;5.47;;;;;;;14.67;51.95;99923.81;5089492;28;20290;-73
2022/04/12 08:32:35;;;;;;;11.52;4.97;;;;;;;14.63;51.94;99923.41;5091096;28;20065;-72
2022/04/12 08:35:01;;;;;;;10.00;5.13;;;;;;;14.84;50.45;99930.38;5095542;28;20042;-72
2022/04/12 08:37:27;;;;;;;9.82;5.18;;;;;;;14.88;52.79;99930.81;5097511;28;20446;-72
2022/04/12 08:39:52;;;;;;;11.23;5.70;;;;;;;15.08;52.12;99930.75;5091511;28;20075;-73
2022/04/12 08:42:18;;;;;;;9.85;5.03;;;;;;;15.49;50.16;99935.78;5089841;28;20032;-73
2022/04/12 08:44:46;;;;;;;10.95;5.15;;;;;;;15.75;48.22;99940.25;5091635;28;20366;-73
2022/04/12 08:47:15;;;;;;;10.93;5.60;;;;;;;15.96;47.31;99929.16;5091280;28;20032;-73
2022/04/12 08:49:41;;;;;;;11.50;5.22;;;;;;;15.96;47.40;99925.66;5091580;28;20135;-73
2022/04/12 08:52:11;;;;;;;7.82;4.97;;;;;;;16.02;47.61;99928.31;5090959;28;20125;-73
2022/04/12 08:54:38;;;;;;;11.57;5.18;;;;;;;16.25;47.51;99922.38;5073162;28;20040;-73
2022/04/12 08:57:04;;;;;;;9.40;5.57;;;;;;;16.23;50.02;99913.69;5091391;28;20059;-72
2022/04/12 08:59:30;;;;;;;13.68;5.70;;;;;;;16.33;47.94;99932.03;5091155;28;20332;-72
2022/04/12 09:01:57;;;;;;;10.10;5.47;;;;;;;16.31;48.75;99925.25;5090863;28;20027;-72
2022/04/12 09:04:26;;;;;;;10.93;5.43;;;;;;;16.68;45.36;99926.16;5091108;28;20040;-73
2022/04/12 09:07:01;;;;;;;11.23;5.25;;;;;;;16.62;48.13;99921.66;5090935;28;20036;-72
2022/04/12 09:09:29;;;;;;;10.68;4.55;;;;;;;16.87;47.19;99925.19;5094801;28;20051;-73
2022/04/12 09:12:00;;;;;;;9.80;5.10;;;;;;;17.02;48.09;99927.53;5093260;28;20093;-74
2022/04/12 09:14:42;;;;;;;10.13;4.95;;;;;;;17.06;46.64;99918.78;5094794;28;20519;-73
2022/04/12 09:17:13;;;;;;;9.55;5.32;;;;;;;17.09;47.57;99912.97;5094438;28;20036;-73
2022/04/12 09:19:46;;;;;;;8.52;4.78;;;;;;;17.32;43.82;99916.84;5094768;28;20093;-71
2022/04/12 09:22:19;;;;;;;9.57;5.03;;;;;;;17.40;42.96;99916.53;5094211;28;20115;-71
2022/04/12 09:24:50;;;;;;;12.00;5.03;;;;;;;17.65;43.33;99913.72;5094452;28;20044;-71
2022/04/12 09:27:19;;;;;;;6.85;5.00;;;;;;;17.95;42.29;99908.38;5094328;28;20512;-71
2022/04/12 09:29:56;;;;;;;9.00;4.63;;;;;;;18.01;42.49;99909.34;5093995;28;20028;-71
2022/04/12 09:32:26;;;;;;;10.05;5.28;;;;;;;17.67;43.89;99913.50;5094116;28;20074;-72
2022/04/12 09:34:52;;;;;;;10.30;5.55;;;;;;;18.01;42.39;99910.16;5093810;28;20032;-71
2022/04/12 09:37:27;;;;;;;8.93;4.27;;;;;;;18.41;41.38;99904.16;5093020;28;20043;-71
2022/04/12 09:39:59;;;;;;;8.63;4.40;;;;;;;18.82;42.71;99900.56;5094805;28;20043;-71
2022/04/12 09:42:49;;;;;;;14.05;4.47;;;;;;;19.28;42.43;99904.25;5093859;28;20032;-71
2022/04/12 09:45:28;;;;;;;9.20;4.63;;;;;;;19.43;45.04;99903.72;5093165;28;20036;-73
2022/04/12 09:47:56;;;;;;;12.75;4.55;;;;;;;19.83;43.65;99900.22;5095043;28;20438;-73
2022/04/12 09:50:24;;;;;;;6.30;4.07;;;;;;;20.19;40.33;99896.25;5095802;28;20157;-73
2022/04/12 09:52:57;;;;;;;9.88;4.55;;;;;;;20.62;40.91;99890.22;5092986;28;20070;-72
2022/04/12 09:55:46;;;;;;;9.77;4.35;;;;;;;20.69;38.26;99890.88;5094270;28;20127;-72
2022/04/12 09:58:21;;;;;;;9.20;4.32;;;;;;;20.86;39.71;99894.38;5094171;28;20035;-73
2022/04/12 10:00:47;;;;;;;8.45;3.90;;;;;;;21.35;35.86;99897.22;5093940;28;20032;-73
2022/04/12 10:03:15;;;;;;;6.47;3.58;;;;;;;22.18;35.31;99891.59;5092131;28;20115;-71
2022/04/12 10:05:42;;;;;;;6.65;3.97;;;;;;;22.61;34.28;99881.63;5094031;28;20116;-71
2022/04/12 10:08:14;;;;;;;;;;;;;;;22.63;35.89;99882.19;5094577;28;20039;-72
2022/04/12 10:10:44;;;;;;;6.63;3.75;;;;;;;23.46;32.96;99872.28;5092831;28;20261;-72
2022/04/12 10:13:12;;;;;;;24.08;5.47;;;;;;;23.60;32.08;99871.78;5093733;28;20032;-72
2022/04/12 10:15:38;;;;;;;7.53;3.40;;;;;;;23.25;32.72;99860.53;5093661;28;20040;-72
2022/04/12 10:18:04;;;;;;;8.90;3.72;;;;;;;23.92;32.06;99858.81;5094103;28;20507;-72
2022/04/12 10:20:31;;;;;;;12.40;4.55;;;;;;;24.35;30.43;99843.09;5093523;28;20032;-72
2022/04/12 10:22:57;;;;;;;17.75;4.28;;;;;;;24.43;29.24;99839.81;5093271;28;20109;-72
2022/04/12 10:25:24;;;;;;;5.88;3.53;;;;;;;25.14;29.28;99841.56;5075754;28;20044;-70
2022/04/12 10:27:53;;;;;;;4.93;3.58;;;;;;;23.93;33.07;99835.16;5093571;28;20114;-71
2022/04/12 10:30:18;;;;;;;9.82;3.63;;;;;;;24.46;32.67;99833.84;5085320;22;20041;-73
2022/04/12 10:33:16;;;;;;;14.05;4.30;;;;;;;25.13;29.85;99827.13;5052933;28;20052;-73
2022/04/12 10:35:44;;;;;;;15.23;3.72;;;;;;;25.27;29.11;99821.88;5053477;28;20432;-73
2022/04/12 10:38:14;;;;;;;7.53;3.13;;;;;;;25.30;28.25;99818.59;5053138;28;20107;-73
2022/04/12 10:40:48;;;;;;;5.13;2.90;;;;;;;24.74;29.40;99821.50;5052928;28;20036;-76
2022/04/12 10:43:20;;;;;;;9.85;3.00;;;;;;;24.38;30.15;99818.03;5052830;28;20036;-75
2022/04/12 10:45:50;;;;;;;7.97;3.30;;;;;;;25.59;28.32;99815.97;5052829;28;20505;-74
2022/04/12 10:48:27;;;;;;;5.10;2.83;;;;;;;25.59;27.99;99809.69;5053029;28;20029;-72
2022/04/12 10:50:56;;;;;;;7.90;3.17;;;;;;;24.67;30.65;99803.84;5051772;28;20394;-74
2022/04/12 10:53:42;;;;;;;7.05;2.88;;;;;;;25.71;28.42;99804.72;5052662;28;20044;-75
2022/04/12 10:56:16;;;;;;;5.20;2.95;;;;;;;26.57;26.73;99802.34;5045499;28;20429;-74
2022/04/12 10:58:43;;;;;;;14.18;3.10;;;;;;;27.02;29.01;99801.81;5051665;28;20040;-71
2022/04/12 11:01:30;;;;;;;10.82;3.30;;;;;;;26.25;32.88;99790.91;5052629;28;20040;-73
2022/04/12 11:03:57;;;;;;;13.48;3.83;;;;;;;26.54;31.02;99779.19;5052428;28;20040;-73
2022/04/12 11:06:30;;;;;;;6.53;2.63;;;;;;;27.24;31.92;99787.63;5052818;28;20043;-74
2022/04/12 11:09:09;;;;;;;6.55;2.70;;;;;;;27.34;28.67;99786.66;5052684;28;20170;-73
2022/04/12 11:11:51;;;;;;;6.90;3.10;;;;;;;28.02;27.93;99782.63;5051503;28;20044;-71
2022/04/12 11:14:25;;;;;;;8.75;3.53;;;;;;;27.81;28.64;99784.88;5052471;28;20543;-73
2022/04/12 11:16:54;;;;;;;5.35;3.40;;;;;;;26.81;31.25;99773.13;5052450;28;20075;-72
2022/04/12 11:19:21;;;;;;;10.02;3.08;;;;;;;27.66;29.49;99774.97;5051182;28;20051;-72
2022/04/12 11:21:51;;;;;;;8.02;2.85;;;;;;;28.43;28.47;99768.22;5051942;28;20075;-72
2022/04/12 11:24:20;;;;;;;6.95;2.58;;;;;;;28.58;27.14;99767.94;5052323;28;20035;-72
2022/04/12 11:26:49;;;;;;;7.47;2.50;;;;;;;28.93;26.70;99764.50;5052188;28;20037;-72
2022/04/12 11:29:17;;;;;;;5.28;2.40;;;;;;;27.77;28.01;99765.50;5051922;28;20421;-72
2022/04/12 11:31:54;;;;;;;9.20;2.70;;;;;;;27.53;26.56;99754.66;5051584;28;20371;-72
2022/04/12 11:34:20;;;;;;;7.53;2.77;;;;;;;27.46;26.49;99761.63;5052410;28;20551;-72
2022/04/12 11:36:51;;;;;;;5.07;2.78;;;;;;;27.96;30.44;99756.44;5052291;28;20128;-72
2022/04/12 11:39:21;;;;;;;6.72;3.13;;;;;;;27.98;26.99;99757.78;5052236;28;20076;-71
2022/04/12 11:41:47;;;;;;;7.70;3.33;;;;;;;28.58;28.71;99746.84;5051836;28;20090;-73
2022/04/12 11:44:13;;;;;;;5.28;2.55;;;;;;;28.97;26.80;99755.66;5051784;28;20048;-71
2022/04/12 11:46:38;;;;;;;6.65;2.33;;;;;;;29.65;25.85;99747.25;5051877;28;20033;-72
2022/04/12 11:49:08;;;;;;;6.63;2.55;;;;;;;29.68;24.51;99745.81;5051817;28;20090;-74
2022/04/12 11:51:41;;;;;;;4.53;2.45;;;;;;;29.64;25.82;99739.34;5051684;28;20450;-75
2022/04/12 11:54:28;;;;;;;8.18;2.40;;;;;;;29.73;24.22;99742.94;5050921;28;20064;-74
2022/04/12 11:56:53;;;;;;;4.82;2.55;;;;;;;28.83;25.96;99726.31;5051897;28;20102;-74
2022/04/12 11:59:19;;;;;;;5.85;2.58;;;;;;;28.43;27.07;99724.41;5067054;28;20032;-74
2022/04/12 12:01:45;;;;;;;5.55;2.40;;;;;;;28.94;23.87;99724.19;5051272;28;20114;-75
2022/04/12 12:04:10;;;;;;;4.70;2.30;;;;;;;28.17;27.61;99727.63;5051601;28;20049;-75
2022/04/12 12:06:56;;;;;;;4.72;2.15;;;;;;;29.79;23.70;99716.19;5051576;28;20033;-75
2022/04/12 12:09:22;;;;;;;5.67;2.33;;;;;;;30.22;22.16;99716.44;5051506;28;20494;-74
2022/04/12 12:11:48;;;;;;;4.50;2.20;;;;;;;28.54;23.48;99723.09;5051152;28;20112;-74
2022/04/12 12:14:15;;;;;;;7.80;2.60;;;;;;;30.04;22.82;99711.97;5050342;28;20118;-74
2022/04/12 12:16:41;;;;;;;4.20;2.28;;;;;;;28.38;24.25;99714.38;5051602;28;20041;-74
2022/04/12 12:19:14;;;;;;;4.18;2.65;;;;;;;29.69;24.29;99711.78;5051635;28;20664;-74
2022/04/12 12:21:44;;;;;;;6.57;2.30;;;;;;;30.90;23.17;99703.25;5034464;28;20033;-75
2022/04/12 12:24:10;;;;;;;8.40;2.50;;;;;;;31.51;21.67;99715.13;5051876;28;20045;-74
2022/04/12 12:26:35;;;;;;;5.30;2.42;;;;;;;29.81;25.61;99702.97;5051362;28;20037;-74
2022/04/12 12:29:01;;;;;;;5.43;2.70;;;;;;;30.72;22.92;99700.47;5050595;28;20083;-74
2022/04/12 12:31:27;;;;;;;5.95;2.67;;;;;;;30.92;23.16;99703.75;5050214;28;20106;-74
2022/04/12 12:33:52;;;;;;;88.65;18.15;;;;;;;30.75;23.76;99708.06;5051165;28;20036;-73
2022/04/12 12:36:23;;;;;;;10.45;2.72;;;;;;;30.30;22.52;99704.69;5051086;28;20063;-75
2022/04/12 12:38:49;;;;;;;20.83;4.43;;;;;;;29.35;23.27;99706.81;5051182;28;20389;-74
2022/04/12 12:41:32;;;;;;;4.18;1.88;;;;;;;29.45;21.03;99699.13;5051633;28;20040;-78
2022/04/12 12:44:03;;;;;;;6.70;2.38;;;;;;;30.25;20.09;99699.31;5055457;28;20056;-74
2022/04/12 12:46:34;;;;;;;4.68;1.70;;;;;;;30.16;20.08;99693.81;5055511;28;20436;-73
2022/04/12 12:49:18;;;;;;;4.28;2.13;;;;;;;30.56;19.00;99695.72;5055568;28;20072;-74
2022/04/12 12:51:44;;;;;;;5.20;2.17;;;;;;;30.83;18.91;99691.91;5055141;28;20031;-75
2022/04/12 12:54:15;;;;;;;3.47;1.60;;;;;;;30.42;17.84;99693.91;5055147;28;20095;-75
2022/04/12 12:56:41;;;;;;;11.48;2.55;;;;;;;30.96;19.02;99689.00;5054970;28;20044;-75
2022/04/12 12:59:19;;;;;;;7.43;1.95;;;;;;;30.99;17.70;99685.63;5053601;28;20037;-75
2022/04/12 13:01:52;;;;;;;37.45;6.18;;;;;;;30.34;18.49;99683.69;5054711;28;20565;-75
2022/04/12 13:04:24;;;;;;;6.05;1.70;;;;;;;31.03;18.75;99691.28;5055256;28;20142;-74
2022/04/12 13:07:08;;;;;;;4.15;1.70;;;;;;;30.76;17.81;99686.88;5054867;28;20040;-74
2022/04/12 13:09:48;;;;;;;4.07;1.88;;;;;;;30.54;18.51;99682.31;5054781;28;20040;-74
2022/04/12 13:12:15;;;;;;;3.25;1.50;;;;;;;31.18;17.85;99690.00;5054629;28;20032;-72
2022/04/12 13:14:44;;;;;;;5.25;2.28;;;;;;;31.23;18.16;99676.91;5053542;28;20045;-76
2022/04/12 13:17:11;;;;;;;5.38;1.60;;;;;;;30.66;19.31;99676.19;5054868;28;20036;-76
2022/04/12 13:19:37;;;;;;;3.13;1.77;;;;;;;30.65;18.35;99675.38;5053657;28;20231;-75
2022/04/12 13:22:05;;;;;;;4.20;1.90;;;;;;;30.29;18.19;99674.78;5054562;28;20037;-76
2022/04/12 13:24:35;;;;;;;4.22;1.92;;;;;;;30.78;19.26;99668.97;5052661;28;20042;-76
2022/04/12 13:27:01;;;;;;;3.53;1.80;;;;;;;29.91;19.97;99667.81;5053316;28;20037;-76
2022/04/12 13:29:27;;;;;;;2.53;1.55;;;;;;;30.63;19.05;99661.13;5065786;28;20398;-75
2022/04/12 13:31:53;;;;;;;3.15;1.45;;;;;;;30.15;20.10;99670.22;5067071;28;20028;-74
2022/04/12 13:34:19;;;;;;;4.53;1.70;;;;;;;30.40;19.43;99665.94;5062462;28;20036;-74
2022/04/12 13:36:45;;;;;;;4.70;2.05;;;;;;;29.79;20.23;99653.84;5061667;28;20402;-74
2022/04/12 13:39:10;;;;;;;4.70;1.90;;;;;;;29.50;20.97;99667.22;5070338;28;20036;-74
2022/04/12 13:41:37;;;;;;;4.20;1.80;;;;;;;29.59;20.94;99673.59;5057173;28;20111;-75
2022/04/12 13:44:03;;;;;;;4.03;2.10;;;;;;;29.91;21.56;99667.81;5067051;28;20036;-75
2022/04/12 13:46:29;;;;;;;7.30;2.40;;;;;;;29.16;23.48;99674.09;5064463;28;20037;-74
2022/04/12 13:48:55;;;;;;;4.60;2.33;;;;;;;29.42;23.29;99666.84;5060050;28;20049;-75
2022/04/12 13:51:21;;;;;;;4.22;1.77;;;;;;;29.25;20.26;99669.47;5069179;28;20036;-74
2022/04/12 13:53:47;;;;;;;6.07;2.13;;;;;;;29.17;23.26;99668.28;5057845;28;20045;-77
2022/04/12 13:56:13;;;;;;;4.10;1.95;;;;;;;28.23;25.73;99662.59;5065021;28;20058;-76
2022/04/12 13:58:39;;;;;;;6.80;2.10;;;;;;;28.32;24.70;99656.16;5065801;28;20068;-75
2022/04/12 14:01:05;;;;;;;10.13;3.05;;;;;;;28.30;27.83;99657.53;5057153;28;20524;-74
2022/04/12 14:03:32;;;;;;;7.20;2.20;;;;;;;28.26;28.56;99654.59;5068593;28;20044;-77
2022/04/12 14:06:01;;;;;;;11.90;2.87;;;;;;;28.58;28.00;99658.38;5059730;28;20756;-77
2022/04/12 14:08:32;;;;;;;8.73;2.60;;;;;;;28.22;26.20;99650.84;5062500;28;20292;-77
2022/04/12 14:10:58;;;;;;;7.60;2.10;;;;;;;27.97;27.86;99649.41;5050683;28;20442;-77
2022/04/12 14:13:24;;;;;;;6.97;2.55;;;;;;;27.50;27.03;99645.84;5056496;28;20064;-77
2022/04/12 14:15:52;;;;;;;5.47;2.40;;;;;;;27.61;25.55;99643.75;5063098;28;20045;-76
2022/04/12 14:18:19;;;;;;;11.80;2.40;;;;;;;26.73;24.13;99650.84;5062028;28;20444;-76
2022/04/12 14:20:45;;;;;;;6.70;2.83;;;;;;;26.73;27.27;99648.09;5060540;28;20028;-76
2022/04/12 14:23:11;;;;;;;6.22;2.45;;;;;;;26.77;25.12;99644.50;5063906;28;20033;-76
2022/04/12 14:25:40;;;;;;;9.82;2.00;;;;;;;27.05;24.45;99650.13;5052062;28;20048;-77
2022/04/12 14:28:08;;;;;;;5.78;2.40;;;;;;;26.78;28.79;99654.31;5052517;28;20032;-76
2022/04/12 14:30:38;;;;;;;6.10;2.10;;;;;;;26.74;25.35;99650.56;5053155;28;20449;-75
2022/04/12 14:33:05;;;;;;;11.38;2.58;;;;;;;26.42;28.47;99647.72;5052807;28;20112;-73
2022/04/12 14:35:31;;;;;;;5.00;2.27;;;;;;;26.46;24.04;99646.81;5053248;28;20116;-78
2022/04/12 14:37:57;;;;;;;5.07;1.87;;;;;;;26.50;24.01;99638.88;5053252;28;20443;-77
2022/04/12 14:40:23;;;;;;;5.75;2.47;;;;;;;26.57;24.33;99638.50;5054019;28;20295;-82
2022/04/12 14:42:49;;;;;;;5.82;1.80;;;;;;;26.44;25.13;99648.22;5075161;28;20055;-75
2022/04/12 14:45:14;;;;;;;4.53;2.47;;;;;;;26.30;23.42;99647.28;5035077;28;20040;-78
2022/04/12 14:47:40;;;;;;;4.88;2.13;;;;;;;26.32;23.59;99636.88;5032966;28;20037;-77
2022/04/12 14:50:06;;;;;;;7.32;2.85;;;;;;;25.95;28.42;99644.69;5031964;28;20041;-77
2022/04/12 14:52:35;;;;;;;6.78;2.85;;;;;;;25.99;25.64;99639.44;5031212;28;20030;-75
2022/04/12 14:55:01;;;;;;;3.60;2.05;;;;;;;26.06;28.97;99639.91;5033047;28;20103;-77
2022/04/12 14:57:27;;;;;;;18.13;3.42;;;;;;;26.03;32.70;99643.22;5034007;28;20118;-78
2022/04/12 14:59:53;;;;;;;12.90;4.32;;;;;;;26.12;31.02;99636.03;5032171;28;20700;-77
2022/04/12 15:02:19;;;;;;;4.30;2.00;;;;;;;25.83;26.59;99632.53;5033536;28;20398;-78
2022/04/12 15:04:45;;;;;;;5.93;2.38;;;;;;;25.98;28.02;99632.38;5033569;28;20030;-78
2022/04/12 15:07:10;;;;;;;11.75;5.47;;;;;;;26.00;29.10;99629.34;5033421;28;20041;-78
2022/04/12 15:09:36;;;;;;;7.57;2.45;;;;;;;25.42;33.38;99635.59;5033886;28;20026;-79
2022/04/12 15:12:04;;;;;;;14.10;3.03;;;;;;;25.64;30.52;99626.97;5034657;28;20478;-78
2022/04/12 15:14:30;;;;;;;7.03;2.63;;;;;;;25.79;25.40;99628.75;5033556;28;20044;-78
2022/04/12 15:16:56;;;;;;;4.82;1.90;;;;;;;25.79;24.05;99623.28;5034082;28;20029;-77
2022/04/12 15:19:22;;;;;;;4.38;2.22;;;;;;;25.97;25.08;99626.09;5033847;28;20116;-76
2022/04/12 15:21:47;;;;;;;8.70;5.22;;;;;;;25.97;25.91;99631.56;5034943;28;20076;-76
2022/04/12 15:24:13;;;;;;;6.78;2.13;;;;;;;26.06;24.88;99629.00;5033809;28;20032;-77
2022/04/12 15:26:38;;;;;;;4.93;2.45;;;;;;;26.13;26.13;99623.19;5037059;28;20033;-79
2022/04/12 15:29:04;;;;;;;5.80;2.20;;;;;;;26.04;24.57;99630.41;5033226;28;20068;-79
2022/04/12 15:31:30;;;;;;;3.03;1.70;;;;;;;26.00;24.83;99629.34;5034229;28;20033;-78
2022/04/12 15:33:58;;;;;;;4.20;2.20;;;;;;;25.98;25.52;99635.09;5033829;28;20067;-76
2022/04/12 15:36:24;;;;;;;4.93;2.00;;;;;;;25.72;25.97;99629.06;5032218;28;20080;-76
2022/04/12 15:38:52;;;;;;;4.43;2.38;;;;;;;25.43;26.74;99626.34;5047800;28;20084;-77
2022/04/12 15:41:21;;;;;;;5.72;2.42;;;;;;;25.46;27.00;99620.31;5034022;28;20099;-78
2022/04/12 15:43:47;;;;;;;9.63;2.30;;;;;;;25.33;27.41;99615.50;5032984;28;20123;-77
2022/04/12 15:46:17;;;;;;;3.80;1.90;;;;;;;25.39;26.83;99630.72;5035204;28;20041;-77
2022/04/12 15:48:44;;;;;;;4.85;1.92;;;;;;;25.36;27.04;99620.38;5049122;28;20076;-76
2022/04/12 15:51:10;;;;;;;6.03;2.20;;;;;;;25.13;26.99;99628.22;5030786;28;20083;-77
2022/04/12 15:53:42;;;;;;;4.00;2.30;;;;;;;25.10;27.54;99623.34;5032816;28;20037;-73
2022/04/12 15:56:10;;;;;;;5.53;2.30;;;;;;;25.11;27.81;99630.41;5031612;28;20073;-73
2022/04/12 15:58:37;;;;;;;12.43;2.45;;;;;;;24.97;28.21;99629.38;5031678;28;20095;-75